Time;durP1;ratioP1;P1;durP2;ratioP2;P2;SDS_P1;SDS_P2;PMS_P1;PMS_P2;Temp;Humidity;BMP_temperature;BMP_pressure;BME280_temperature;BME280_humidity;BME280_pressure;Samples;Min_cycle;Max_cycle;Signal;HPM_P1;HPM_P2
2022/09/05 00:00:18;;;;;;;3.55;1.75;;;;;;;16.04;100.00;101745.78;5008495;28;20520;-83
2022/09/05 00:03:12;;;;;;;3.90;1.63;;;;;;;16.01;100.00;101740.88;5012412;28;20427;-82
2022/09/05 00:05:57;;;;;;;4.05;1.70;;;;;;;15.96;100.00;101741.75;5031519;28;20426;-83
2022/09/05 00:08:46;;;;;;;3.83;1.70;;;;;;;15.80;100.00;101740.25;5016437;28;20414;-83
2022/09/05 00:11:26;;;;;;;3.58;1.70;;;;;;;15.89;100.00;101737.69;5034365;28;20445;-83
2022/09/05 00:14:19;;;;;;;4.35;1.75;;;;;;;15.87;100.00;101735.25;5014300;28;20425;-85
2022/09/05 00:17:01;;;;;;;4.18;1.70;;;;;;;15.82;100.00;101735.28;5033069;28;20414;-83
2022/09/05 00:19:40;;;;;;;6.55;2.15;;;;;;;15.70;100.00;101735.66;5042225;28;20427;-83
2022/09/05 00:22:33;;;;;;;3.87;1.80;;;;;;;15.62;100.00;101730.78;5033072;28;20805;-83
2022/09/05 00:25:20;;;;;;;4.38;1.80;;;;;;;15.57;100.00;101736.31;5020623;28;20879;-83
2022/09/05 00:28:02;;;;;;;3.55;1.90;;;;;;;15.39;100.00;101726.88;5031004;28;20427;-84
2022/09/05 00:30:46;;;;;;;4.70;2.00;;;;;;;15.44;100.00;101732.31;5036298;28;20764;-83
2022/09/05 00:33:27;;;;;;;4.38;1.77;;;;;;;15.50;100.00;101735.84;5034462;28;20431;-83
2022/09/05 00:36:08;;;;;;;3.97;1.67;;;;;;;15.56;100.00;101735.47;5032399;28;20757;-83
2022/09/05 00:38:40;;;;;;;4.68;2.08;;;;;;;15.50;100.00;101733.91;5019989;28;20428;-82
2022/09/05 00:41:14;;;;;;;2.78;1.60;;;;;;;15.35;100.00;101726.63;5010099;28;20435;-83
2022/09/05 00:43:50;;;;;;;3.72;1.90;;;;;;;15.39;100.00;101732.34;5012738;28;20553;-82
2022/09/05 00:46:27;;;;;;;3.22;1.83;;;;;;;15.25;100.00;101743.97;5024540;28;20425;-83
2022/09/05 00:49:18;;;;;;;5.20;2.00;;;;;;;15.20;100.00;101733.03;5015750;28;20440;-83
2022/09/05 00:51:58;;;;;;;4.22;1.80;;;;;;;15.20;100.00;101749.47;5031075;28;20411;-83
2022/09/05 00:54:48;;;;;;;3.28;1.80;;;;;;;15.12;100.00;101747.34;5032782;28;20418;-83
2022/09/05 00:57:36;;;;;;;3.50;1.90;;;;;;;15.25;100.00;101749.44;5034366;28;20759;-83
2022/09/05 01:00:16;;;;;;;4.28;2.00;;;;;;;15.22;100.00;101749.19;5009688;28;20440;-83
2022/09/05 01:03:17;;;;;;;8.73;2.00;;;;;;;15.15;100.00;101746.78;5023444;28;20413;-82
2022/09/05 01:06:08;;;;;;;3.63;1.95;;;;;;;15.05;100.00;101746.84;5014749;28;20421;-84
2022/09/05 01:09:08;;;;;;;4.65;1.92;;;;;;;15.01;100.00;101743.88;5012227;28;20422;-83
2022/09/05 01:11:52;;;;;;;5.32;2.30;;;;;;;14.93;100.00;101742.53;5034216;28;20431;-83
2022/09/05 01:14:39;;;;;;;4.13;2.10;;;;;;;15.06;100.00;101743.81;5032955;28;20423;-82
2022/09/05 01:17:26;;;;;;;5.53;2.08;;;;;;;14.89;100.00;101727.75;5029311;28;20423;-82
2022/09/05 01:20:07;;;;;;;3.63;2.05;;;;;;;15.05;100.00;101747.69;5014047;28;20889;-83
2022/09/05 01:23:02;;;;;;;4.07;1.92;;;;;;;15.02;100.00;101752.91;5014293;28;20428;-84
2022/09/05 01:25:51;;;;;;;4.97;2.20;;;;;;;15.01;100.00;101756.75;5027653;28;20788;-84
2022/09/05 01:28:27;;;;;;;5.88;2.10;;;;;;;15.03;100.00;101752.63;5029891;28;20423;-83
2022/09/05 01:31:09;;;;;;;5.60;2.22;;;;;;;15.05;100.00;101752.34;5030092;28;20423;-83
2022/09/05 01:33:48;;;;;;;5.65;2.20;;;;;;;14.90;100.00;101755.97;5037871;28;20426;-85
2022/09/05 01:36:45;;;;;;;3.30;1.90;;;;;;;14.92;100.00;101756.53;5011099;28;20432;-84
2022/09/05 01:39:19;;;;;;;5.50;2.20;;;;;;;14.95;100.00;101759.50;5010393;28;20442;-83
2022/09/05 01:41:54;;;;;;;6.28;2.28;;;;;;;14.94;100.00;101760.63;5014898;28;20450;-83
2022/09/05 01:44:53;;;;;;;4.57;2.25;;;;;;;14.93;100.00;101758.97;5015559;28;20427;-83
2022/09/05 01:47:40;;;;;;;6.65;2.20;;;;;;;15.00;100.00;101753.19;5032987;28;20431;-83
2022/09/05 01:50:31;;;;;;;5.85;2.40;;;;;;;15.00;100.00;101747.72;5033289;28;20426;-83
2022/09/05 01:53:24;;;;;;;4.95;2.38;;;;;;;15.08;100.00;101754.50;5010984;28;20946;-84
2022/09/05 01:56:14;;;;;;;5.15;2.28;;;;;;;15.17;100.00;101746.50;5027486;28;20474;-83
2022/09/05 01:59:13;;;;;;;4.00;2.20;;;;;;;15.14;100.00;101743.22;5034321;28;20423;-83
2022/09/05 02:02:12;;;;;;;5.30;2.30;;;;;;;15.10;100.00;101744.09;5035052;28;20432;-82
2022/09/05 02:05:02;;;;;;;4.15;2.17;;;;;;;15.03;100.00;101735.38;5008593;28;20423;-82
2022/09/05 02:07:51;;;;;;;4.47;2.30;;;;;;;15.07;100.00;101750.13;5032813;28;20419;-84
2022/09/05 02:11:01;;;;;;;4.90;2.50;;;;;;;15.01;100.00;101743.03;5014746;28;20430;-82
2022/09/05 02:13:45;;;;;;;4.35;2.30;;;;;;;14.98;100.00;101746.34;5009909;28;20955;-83
2022/09/05 02:16:23;;;;;;;4.03;2.20;;;;;;;14.98;100.00;101741.69;5028764;28;20438;-83
2022/09/05 02:19:06;;;;;;;3.90;2.37;;;;;;;14.96;100.00;101735.69;5032421;28;20422;-83
2022/09/05 02:21:47;;;;;;;4.55;2.40;;;;;;;14.96;100.00;101743.91;5033945;28;20423;-83
2022/09/05 02:24:23;;;;;;;5.22;2.40;;;;;;;14.92;100.00;101735.41;5031177;28;20930;-83
2022/09/05 02:27:08;;;;;;;5.10;2.40;;;;;;;14.90;100.00;101740.38;5014804;28;20415;-83
2022/09/05 02:29:48;;;;;;;5.13;2.50;;;;;;;14.94;100.00;101735.13;5029664;28;20435;-82
2022/09/05 02:32:24;;;;;;;5.50;2.53;;;;;;;14.94;100.00;101744.19;5034133;28;20779;-82
2022/09/05 02:35:03;;;;;;;5.30;2.80;;;;;;;14.91;100.00;101744.72;5012770;28;20431;-83
2022/09/05 02:37:41;;;;;;;5.88;2.58;;;;;;;14.87;100.00;101740.09;5011161;28;20420;-83
2022/09/05 02:40:16;;;;;;;4.97;2.40;;;;;;;14.92;100.00;101742.81;5011465;28;20424;-83
2022/09/05 02:42:58;;;;;;;4.90;2.55;;;;;;;14.91;100.00;101743.91;5012908;28;20416;-84
2022/09/05 02:45:37;;;;;;;5.70;2.60;;;;;;;14.82;100.00;101742.88;5034289;28;20883;-82
2022/09/05 02:48:16;;;;;;;5.30;2.50;;;;;;;14.80;100.00;101748.63;5015310;28;20412;-83
2022/09/05 02:50:54;;;;;;;5.80;2.78;;;;;;;14.84;100.00;101746.97;5020779;28;20414;-83
2022/09/05 02:53:29;;;;;;;5.97;2.60;;;;;;;14.76;100.00;101747.56;5032175;28;20416;-83
2022/09/05 02:56:38;;;;;;;5.15;2.55;;;;;;;14.75;100.00;101748.69;5013719;28;20423;-83
2022/09/05 02:59:25;;;;;;;6.37;2.40;;;;;;;14.77;100.00;101743.72;5021080;28;20426;-82
2022/09/05 03:02:04;;;;;;;5.40;2.75;;;;;;;14.78;100.00;101735.22;5014037;28;20429;-83
2022/09/05 03:04:44;;;;;;;4.30;2.35;;;;;;;14.76;100.00;101742.91;4994234;28;20429;-83
2022/09/05 03:07:34;;;;;;;6.90;2.70;;;;;;;14.74;100.00;101728.66;4994089;28;20431;-82
2022/09/05 03:10:22;;;;;;;6.10;2.90;;;;;;;14.83;100.00;101733.56;5020102;28;20418;-82
2022/09/05 03:13:29;;;;;;;6.60;2.90;;;;;;;14.88;100.00;101733.53;5029513;28;20958;-84
2022/09/05 03:16:42;;;;;;;5.68;2.90;;;;;;;14.78;100.00;101728.94;5021980;28;20424;-83
2022/09/05 03:19:46;;;;;;;6.88;2.60;;;;;;;14.74;100.00;101727.84;5018284;28;20483;-84
2022/09/05 03:22:49;;;;;;;5.13;2.97;;;;;;;14.65;100.00;101726.78;4982674;28;20523;-82
2022/09/05 03:26:15;;;;;;;5.90;2.80;;;;;;;14.67;100.00;101727.34;5023351;28;20731;-83
2022/09/05 03:29:16;;;;;;;5.60;2.78;;;;;;;14.65;100.00;101729.53;5012891;28;20419;-83
2022/09/05 03:32:29;;;;;;;5.53;2.78;;;;;;;14.65;100.00;101726.78;5031578;28;21077;-83
2022/09/05 03:35:36;;;;;;;5.22;2.78;;;;;;;14.72;100.00;101721.81;5017838;28;20430;-85
2022/09/05 03:38:40;;;;;;;5.17;2.90;;;;;;;14.81;100.00;101724.81;5013375;28;20431;-84
2022/09/05 03:41:24;;;;;;;4.57;2.72;;;;;;;14.86;100.00;101716.53;5013458;28;20431;-82
2022/09/05 03:44:14;;;;;;;5.97;2.95;;;;;;;14.85;100.00;101717.66;5030504;28;20425;-82
2022/09/05 03:47:07;;;;;;;5.60;2.97;;;;;;;14.88;100.00;101706.13;5028458;28;20415;-82
2022/09/05 03:50:10;;;;;;;7.88;2.90;;;;;;;14.83;100.00;101711.63;5028391;28;20422;-84
2022/09/05 03:52:59;;;;;;;8.27;3.22;;;;;;;14.91;100.00;101716.50;5031392;28;20422;-82
2022/09/05 03:55:56;;;;;;;6.15;3.17;;;;;;;14.88;100.00;101719.81;5030103;28;20895;-82
2022/09/05 03:58:46;;;;;;;7.40;3.30;;;;;;;14.92;100.00;101718.16;5032913;28;20421;-83
2022/09/05 04:01:18;;;;;;;5.28;2.78;;;;;;;14.80;100.00;101729.44;5031084;28;20418;-84
2022/09/05 04:03:52;;;;;;;7.37;3.07;;;;;;;14.71;100.00;101714.72;5029782;28;20793;-83
2022/09/05 04:06:27;;;;;;;6.35;3.05;;;;;;;14.89;100.00;101737.91;5025945;28;20421;-82
2022/09/05 04:09:05;;;;;;;6.22;3.25;;;;;;;14.79;100.00;101733.31;5038792;28;20409;-84
2022/09/05 04:11:45;;;;;;;7.13;3.15;;;;;;;14.83;100.00;101741.78;5051493;28;20424;-85
2022/09/05 04:14:22;;;;;;;6.43;3.08;;;;;;;14.80;100.00;101748.63;5021259;28;20415;-83
2022/09/05 04:16:56;;;;;;;5.15;2.90;;;;;;;14.69;100.00;101741.56;5013678;28;20412;-83
2022/09/05 04:19:31;;;;;;;7.82;3.40;;;;;;;14.91;100.00;101743.91;5030104;28;20411;-83
2022/09/05 04:22:17;;;;;;;6.80;3.10;;;;;;;14.87;100.00;101743.66;5009587;28;20426;-83
2022/09/05 04:24:52;;;;;;;7.05;2.88;;;;;;;14.84;100.00;101755.19;5029837;28;20427;-83
2022/09/05 04:27:38;;;;;;;5.20;3.00;;;;;;;14.91;100.00;101750.22;5012987;28;21005;-82
2022/09/05 04:30:26;;;;;;;7.43;3.30;;;;;;;14.83;100.00;101745.34;5013150;28;20411;-82
2022/09/05 04:33:03;;;;;;;7.73;3.00;;;;;;;14.92;100.00;101748.31;5018356;28;20442;-82
2022/09/05 04:35:45;;;;;;;4.70;2.85;;;;;;;14.99;100.00;101742.50;5025552;28;20428;-84
2022/09/05 04:38:35;;;;;;;6.68;3.40;;;;;;;14.93;100.00;101748.03;5017177;28;20436;-82
2022/09/05 04:41:09;;;;;;;6.53;3.30;;;;;;;14.83;100.00;101753.56;5027729;28;20419;-83
2022/09/05 04:43:49;;;;;;;7.00;3.42;;;;;;;14.86;100.00;101758.47;5029303;28;20423;-84
2022/09/05 04:46:28;;;;;;;6.50;3.00;;;;;;;14.84;100.00;101763.41;5030559;28;20454;-84
2022/09/05 04:49:07;;;;;;;9.68;3.22;;;;;;;15.05;100.00;101766.03;5030956;28;20427;-82
2022/09/05 04:52:05;;;;;;;7.90;3.20;;;;;;;14.92;100.00;101760.06;5007962;28;20925;-83
2022/09/05 04:54:43;;;;;;;9.38;3.33;;;;;;;14.98;100.00;101760.06;5025781;28;20413;-83
2022/09/05 04:57:22;;;;;;;5.85;3.13;;;;;;;14.95;100.00;101761.44;5036872;28;20423;-84
2022/09/05 05:00:03;;;;;;;7.35;3.30;;;;;;;14.88;100.00;101772.72;5009951;28;20481;-83
2022/09/05 05:02:39;;;;;;;7.07;3.10;;;;;;;14.91;100.00;101772.13;5017150;28;20432;-82
2022/09/05 05:05:23;;;;;;;6.38;3.40;;;;;;;14.88;100.00;101777.38;5000256;28;20427;-83
2022/09/05 05:07:56;;;;;;;5.57;3.03;;;;;;;15.08;100.00;101766.31;5032293;28;20419;-83
2022/09/05 05:10:35;;;;;;;5.90;3.30;;;;;;;15.06;100.00;101773.97;5015816;28;20758;-83
2022/09/05 05:13:15;;;;;;;6.25;3.05;;;;;;;15.10;100.00;101776.97;5011159;28;20424;-82
2022/09/05 05:15:56;;;;;;;6.20;3.20;;;;;;;15.02;100.00;101781.13;5032554;28;20426;-82
2022/09/05 05:18:29;;;;;;;5.75;3.30;;;;;;;15.08;100.00;101773.69;5015811;28;20895;-83
2022/09/05 05:21:05;;;;;;;6.18;3.15;;;;;;;15.07;100.00;101772.88;5034049;28;20415;-83
2022/09/05 05:23:41;;;;;;;5.88;3.38;;;;;;;15.13;100.00;101774.50;5032505;28;20423;-84
2022/09/05 05:26:22;;;;;;;6.63;3.00;;;;;;;15.17;100.00;101773.94;5033896;28;20415;-82
2022/09/05 05:29:00;;;;;;;6.60;3.20;;;;;;;15.11;100.00;101778.63;5030337;28;20435;-83
2022/09/05 05:31:38;;;;;;;6.50;3.30;;;;;;;15.11;100.00;101782.19;5034508;28;20473;-81
2022/09/05 05:34:16;;;;;;;5.60;3.40;;;;;;;15.13;100.00;101776.41;5048319;28;20434;-82
2022/09/05 05:36:55;;;;;;;6.75;3.30;;;;;;;15.12;100.00;101777.50;5010626;28;20427;-83
2022/09/05 05:39:30;;;;;;;7.28;3.35;;;;;;;15.08;100.00;101782.75;5018843;28;20424;-82
2022/09/05 05:42:04;;;;;;;8.07;3.33;;;;;;;15.19;100.00;101786.25;5013333;28;20425;-82
2022/09/05 05:44:38;;;;;;;9.13;3.30;;;;;;;15.19;100.00;101786.25;5014517;28;20446;-83
2022/09/05 05:47:20;;;;;;;6.55;3.17;;;;;;;15.18;100.00;101781.88;5015865;28;20449;-82
2022/09/05 05:50:04;;;;;;;7.35;3.45;;;;;;;15.33;100.00;101786.44;5015044;28;20415;-82
2022/09/05 05:53:06;;;;;;;7.13;3.40;;;;;;;15.33;100.00;101788.34;5003387;28;20427;-82
2022/09/05 05:55:55;;;;;;;8.25;3.40;;;;;;;15.43;100.00;101791.03;5009027;28;20429;-82
2022/09/05 05:59:02;;;;;;;7.00;3.30;;;;;;;15.43;100.00;101783.59;5026118;28;20446;-83
2022/09/05 06:02:10;;;;;;;10.23;3.20;;;;;;;15.51;100.00;101781.34;5002316;28;21152;-82
2022/09/05 06:05:27;;;;;;;7.18;3.58;;;;;;;15.70;100.00;101785.06;5023014;28;20433;-82
2022/09/05 06:08:12;;;;;;;6.47;3.10;;;;;;;15.95;100.00;101785.94;5025804;28;20427;-83
2022/09/05 06:11:22;;;;;;;6.93;3.13;;;;;;;16.18;100.00;101786.28;5010249;28;20433;-84
2022/09/05 06:14:37;;;;;;;7.05;3.45;;;;;;;16.42;100.00;101792.59;4990686;28;20427;-83
2022/09/05 06:17:37;;;;;;;5.18;2.88;;;;;;;16.36;100.00;101787.47;4996467;28;20756;-84
2022/09/05 06:20:28;;;;;;;8.10;3.28;;;;;;;16.44;100.00;101798.63;5031269;28;20419;-82
2022/09/05 06:23:46;;;;;;;10.20;3.20;;;;;;;16.33;100.00;101808.09;5018504;28;20433;-84
2022/09/05 06:26:50;;;;;;;6.57;3.25;;;;;;;16.54;100.00;101805.91;5028687;28;21223;-86
2022/09/05 06:29:44;;;;;;;6.85;3.08;;;;;;;16.37;100.00;101794.59;5029104;28;20428;-86
2022/09/05 06:32:29;;;;;;;10.07;3.17;;;;;;;16.63;100.00;101803.34;5003817;28;21155;-86
2022/09/05 06:35:31;;;;;;;5.90;3.03;;;;;;;16.58;100.00;101808.91;5011407;28;20431;-87
2022/09/05 06:38:22;;;;;;;6.22;3.20;;;;;;;16.66;100.00;101789.81;5018219;28;20438;-84
2022/09/05 06:41:12;;;;;;;6.00;3.17;;;;;;;16.87;100.00;101806.06;5031208;28;20423;-87
2022/09/05 06:44:14;;;;;;;5.80;3.20;;;;;;;16.86;100.00;101804.41;5028714;28;20422;-86
2022/09/05 06:46:50;;;;;;;7.47;3.10;;;;;;;16.87;100.00;101808.81;5021731;28;20419;-88
2022/09/05 06:49:24;;;;;;;5.80;3.22;;;;;;;16.97;100.00;101816.97;5024941;28;20435;-84
2022/09/05 06:52:29;;;;;;;6.53;3.15;;;;;;;16.84;100.00;101821.22;5025760;28;20788;-91
2022/09/05 06:55:31;;;;;;;7.22;3.00;;;;;;;17.06;100.00;101816.31;5027511;28;20422;-89
2022/09/05 06:58:40;;;;;;;6.47;3.20;;;;;;;17.25;100.00;101822.63;5007399;28;20427;-87
2022/09/05 07:01:10;;;;;;;6.35;2.88;;;;;;;17.24;100.00;101818.25;5024259;28;20492;-91
2022/09/05 07:04:08;;;;;;;6.75;3.33;;;;;;;17.45;100.00;101820.69;5010184;28;20423;-91
2022/09/05 07:06:50;;;;;;;10.38;3.40;;;;;;;17.51;100.00;101816.72;5022834;28;20907;-88
2022/09/05 07:09:29;;;;;;;6.57;3.30;;;;;;;17.41;100.00;101817.72;5014065;28;20434;-89
2022/09/05 07:12:13;;;;;;;6.93;3.05;;;;;;;17.46;100.00;101823.13;5027666;28;20431;-91
2022/09/05 07:14:53;;;;;;;6.28;3.05;;;;;;;17.62;100.00;101814.63;5004869;28;20425;-88
2022/09/05 07:17:36;;;;;;;6.82;3.03;;;;;;;17.75;100.00;101819.38;5006172;28;20442;-89
2022/09/05 07:20:19;;;;;;;5.37;3.00;;;;;;;17.77;100.00;101824.59;5003581;28;20425;-87
2022/09/05 07:22:58;;;;;;;6.07;3.15;;;;;;;17.73;100.00;101810.63;5006797;28;20468;-85
2022/09/05 07:25:33;;;;;;;7.20;3.20;;;;;;;17.58;100.00;101814.44;4994265;28;20426;-88
2022/09/05 07:28:11;;;;;;;5.53;3.00;;;;;;;17.78;100.00;101818.78;5015451;28;20409;-88
2022/09/05 07:30:42;;;;;;;7.27;3.60;;;;;;;17.82;100.00;101822.56;5020663;28;20967;-88
2022/09/05 07:33:11;;;;;;;5.72;3.10;;;;;;;17.75;100.00;101804.81;5017248;28;20436;-88
2022/09/05 07:35:44;;;;;;;8.80;3.33;;;;;;;17.78;100.00;101827.03;5002477;28;21383;-87
2022/09/05 07:38:17;;;;;;;6.85;3.28;;;;;;;17.94;100.00;101829.56;5003611;28;20448;-85
2022/09/05 07:40:56;;;;;;;7.63;3.28;;;;;;;17.99;100.00;101827.56;5019030;28;20998;-85
2022/09/05 07:43:35;;;;;;;6.22;3.25;;;;;;;18.14;100.00;101831.94;5003822;28;21054;-85
2022/09/05 07:46:10;;;;;;;6.80;3.28;;;;;;;18.38;100.00;101835.66;5020027;28;20426;-87
2022/09/05 07:48:47;;;;;;;7.30;3.25;;;;;;;18.29;100.00;101817.06;5004009;28;20436;-88
2022/09/05 07:51:21;;;;;;;8.05;3.25;;;;;;;18.53;100.00;101843.63;4997252;28;20438;-86
2022/09/05 07:53:58;;;;;;;10.18;3.40;;;;;;;18.33;100.00;101842.09;4999412;28;20421;-86
2022/09/05 07:56:44;;;;;;;9.55;3.20;;;;;;;18.20;100.00;101827.16;5000334;28;20431;-86
2022/09/05 07:59:17;;;;;;;5.88;3.22;;;;;;;18.19;100.00;101840.13;5013147;28;20446;-89
2022/09/05 08:01:48;;;;;;;5.90;3.17;;;;;;;18.33;100.00;101847.59;5019415;28;20434;-86
2022/09/05 08:04:27;;;;;;;7.10;3.50;;;;;;;18.32;100.00;101848.72;4996638;28;20418;-84
2022/09/05 08:06:57;;;;;;;6.30;3.20;;;;;;;18.31;100.00;101855.34;4997110;28;21156;-85
2022/09/05 08:09:30;;;;;;;5.40;2.90;;;;;;;18.33;100.00;101848.41;4995937;28;20434;-88
2022/09/05 08:12:10;;;;;;;12.80;6.72;;;;;;;18.53;100.00;101847.22;5016135;28;20438;-87
2022/09/05 08:14:51;;;;;;;5.00;2.90;;;;;;;18.51;100.00;101837.63;4996682;28;20532;-86
2022/09/05 08:17:23;;;;;;;6.73;3.47;;;;;;;18.68;100.00;101843.34;4999241;28;20425;-86
2022/09/05 08:20:11;;;;;;;6.93;3.10;;;;;;;18.82;100.00;101845.25;4995647;28;20942;-87
2022/09/05 08:22:56;;;;;;;5.90;3.20;;;;;;;18.80;100.00;101845.56;4999355;28;21152;-86
2022/09/05 08:25:32;;;;;;;6.18;3.17;;;;;;;18.88;100.00;101835.81;5003797;28;20439;-88
2022/09/05 08:28:12;;;;;;;10.98;3.42;;;;;;;18.90;100.00;101833.53;5000426;28;20433;-87
2022/09/05 08:30:44;;;;;;;6.20;3.10;;;;;;;18.97;100.00;101844.16;4997724;28;20441;-84
2022/09/05 08:33:15;;;;;;;7.30;3.20;;;;;;;18.97;100.00;101828.41;5002026;28;20427;-87
2022/09/05 08:35:53;;;;;;;7.13;3.03;;;;;;;18.99;100.00;101845.50;5024938;28;20421;-84
2022/09/05 08:38:28;;;;;;;7.18;2.92;;;;;;;18.99;100.00;101844.69;5007712;28;21004;-87
2022/09/05 08:41:07;;;;;;;6.05;3.30;;;;;;;18.84;100.00;101843.84;5022530;28;20426;-82
2022/09/05 08:43:41;;;;;;;5.93;3.33;;;;;;;19.08;100.00;101847.53;5005412;28;20436;-89
2022/09/05 08:46:16;;;;;;;7.47;3.30;;;;;;;19.18;100.00;101830.72;5024911;28;20432;-87
2022/09/05 08:49:04;;;;;;;5.07;3.03;;;;;;;19.17;100.00;101823.59;5018568;28;20923;-86
2022/09/05 08:51:44;;;;;;;5.88;3.20;;;;;;;19.36;100.00;101813.22;5021791;28;20427;-88
2022/09/05 08:54:20;;;;;;;7.30;3.22;;;;;;;19.51;100.00;101822.25;5024990;28;20454;-88
2022/09/05 08:57:01;;;;;;;6.60;3.37;;;;;;;19.60;100.00;101820.38;5024338;28;20444;-84
2022/09/05 08:59:43;;;;;;;6.70;3.50;;;;;;;19.68;100.00;101818.81;5022708;28;20430;-88
2022/09/05 09:02:44;;;;;;;11.05;6.03;;;;;;;19.86;100.00;101819.78;5005236;28;22056;-85
2022/09/05 09:05:30;;;;;;;5.93;3.20;;;;;;;19.70;100.00;101813.78;5018043;28;20423;-86
2022/09/05 09:08:14;;;;;;;9.02;3.38;;;;;;;20.10;100.00;101813.88;5021440;28;21169;-83
2022/09/05 09:10:56;;;;;;;7.27;3.20;;;;;;;20.19;100.00;101808.38;5023317;28;20478;-84
2022/09/05 09:13:40;;;;;;;5.70;3.07;;;;;;;20.11;100.00;101811.97;5006568;28;20425;-85
2022/09/05 09:16:19;;;;;;;5.40;3.10;;;;;;;20.13;100.00;101812.44;5026224;28;20425;-82
2022/09/05 09:19:05;;;;;;;7.88;3.20;;;;;;;20.18;100.00;101810.34;5003222;28;20440;-87
2022/09/05 09:21:41;;;;;;;7.22;3.00;;;;;;;20.43;100.00;101816.31;5019335;28;20436;-85
2022/09/05 09:24:26;;;;;;;6.40;3.00;;;;;;;20.46;100.00;101812.09;5013776;28;21693;-85
2022/09/05 09:26:59;;;;;;;8.10;3.35;;;;;;;20.19;100.00;101812.00;5018910;28;21861;-86
2022/09/05 09:29:33;;;;;;;5.05;3.00;;;;;;;20.24;100.00;101818.50;5012850;28;20433;-83
2022/09/05 09:32:10;;;;;;;6.90;3.17;;;;;;;20.31;100.00;101802.28;5014486;28;20428;-86
2022/09/05 09:34:53;;;;;;;6.23;3.20;;;;;;;20.74;100.00;101807.16;5022618;28;20417;-84
2022/09/05 09:37:49;;;;;;;6.55;2.97;;;;;;;20.88;100.00;101798.72;5015410;28;20429;-84
2022/09/05 09:41:01;;;;;;;7.07;2.92;;;;;;;21.00;100.00;101804.44;4999334;28;20438;-84
2022/09/05 09:44:00;;;;;;;5.20;2.90;;;;;;;20.97;100.00;101799.56;5004465;28;20448;-86
2022/09/05 09:46:42;;;;;;;7.00;3.03;;;;;;;21.04;100.00;101794.34;5000771;28;20435;-82
2022/09/05 09:49:41;;;;;;;6.15;2.85;;;;;;;21.12;98.33;101789.16;4997328;28;20982;-83
2022/09/05 09:52:34;;;;;;;5.20;2.90;;;;;;;21.10;100.00;101791.41;4995223;28;20443;-84
2022/09/05 09:55:45;;;;;;;5.57;2.90;;;;;;;21.18;100.00;101774.00;5015066;28;20426;-82
2022/09/05 09:58:28;;;;;;;8.70;4.68;;;;;;;21.43;100.00;101779.84;5014404;28;20451;-83
2022/09/05 10:01:07;;;;;;;7.70;4.35;;;;;;;21.33;98.88;101783.78;4998679;28;20438;-83
2022/09/05 10:04:21;;;;;;;10.40;3.10;;;;;;;21.63;100.00;101761.78;5023280;28;20460;-86
2022/09/05 10:07:18;;;;;;;6.00;3.00;;;;;;;21.46;97.51;101760.66;5008635;28;21128;-85
2022/09/05 10:10:17;;;;;;;5.53;2.60;;;;;;;21.45;91.65;101761.78;5012089;28;20432;-87
2022/09/05 10:13:17;;;;;;;7.07;2.50;;;;;;;21.51;94.34;101766.00;5005716;28;20435;-87
2022/09/05 10:16:15;;;;;;;7.10;2.70;;;;;;;21.56;97.37;101762.28;4998322;28;20431;-89
2022/09/05 10:19:09;;;;;;;7.22;2.60;;;;;;;21.69;87.78;101757.69;5004255;28;20435;-84
2022/09/05 10:21:58;;;;;;;14.32;2.90;;;;;;;21.95;85.63;101748.50;5001391;28;20427;-84
2022/09/05 10:24:50;;;;;;;3.67;2.40;;;;;;;21.98;86.05;101765.25;5009307;28;20448;-86
2022/09/05 10:27:32;;;;;;;5.80;2.53;;;;;;;22.11;90.94;101757.06;4999247;28;20437;-85
2022/09/05 10:30:09;;;;;;;6.33;2.70;;;;;;;21.94;82.88;101753.19;5000170;28;20421;-85
2022/09/05 10:32:51;;;;;;;4.38;2.40;;;;;;;21.92;90.16;101758.28;5024799;28;20436;-85
2022/09/05 10:35:25;;;;;;;4.70;2.30;;;;;;;22.07;87.87;101759.69;5000433;28;20431;-86
2022/09/05 10:38:10;;;;;;;6.28;2.40;;;;;;;22.21;81.05;101753.94;5020360;28;20469;-85
2022/09/05 10:40:47;;;;;;;8.45;2.70;;;;;;;22.41;82.27;101755.16;5017116;28;20432;-86
2022/09/05 10:43:22;;;;;;;5.13;2.78;;;;;;;22.40;91.75;101742.44;5018873;28;21058;-85
2022/09/05 10:46:01;;;;;;;10.05;2.70;;;;;;;22.55;86.96;101733.53;5004928;28;20438;-83
2022/09/05 10:48:40;;;;;;;5.97;2.63;;;;;;;22.80;86.41;101746.75;5004699;28;20425;-85
2022/09/05 10:51:17;;;;;;;5.20;2.30;;;;;;;22.66;81.64;101744.22;5019985;28;20419;-88
2022/09/05 10:53:57;;;;;;;7.47;2.50;;;;;;;22.45;89.73;101739.47;5026181;28;21262;-85
2022/09/05 10:56:37;;;;;;;7.25;2.42;;;;;;;22.56;83.12;101723.25;5015869;28;20462;-86
2022/09/05 10:59:19;;;;;;;9.48;2.53;;;;;;;22.66;86.02;101736.72;5016558;28;20421;-87
2022/09/05 11:02:02;;;;;;;4.60;2.45;;;;;;;22.72;81.39;101737.34;5027504;28;20441;-85
2022/09/05 11:04:45;;;;;;;4.10;2.42;;;;;;;22.35;83.29;101726.78;4997525;28;20440;-86
2022/09/05 11:07:24;;;;;;;6.80;2.50;;;;;;;22.53;75.51;101732.25;4997490;28;20441;-85
2022/09/05 11:10:02;;;;;;;6.25;2.40;;;;;;;22.63;76.82;101726.28;5021303;28;20423;-85
2022/09/05 11:12:50;;;;;;;4.93;2.67;;;;;;;22.62;81.62;101727.47;5000756;28;20903;-87
2022/09/05 11:15:32;;;;;;;7.47;4.20;;;;;;;22.64;82.11;101727.91;5000439;28;20427;-88
2022/09/05 11:18:09;;;;;;;6.10;2.58;;;;;;;22.40;79.85;101734.13;5023988;28;21135;-84
2022/09/05 11:20:51;;;;;;;4.40;2.45;;;;;;;22.20;82.06;101728.16;5020526;28;20431;-87
2022/09/05 11:23:21;;;;;;;4.95;2.30;;;;;;;22.35;84.87;101726.78;5006463;28;20433;-84
2022/09/05 11:26:00;;;;;;;4.90;2.27;;;;;;;22.30;85.96;101729.72;5004463;28;20435;-86
2022/09/05 11:28:41;;;;;;;5.13;2.50;;;;;;;22.28;82.29;101715.41;4999050;28;20434;-85
2022/09/05 11:31:15;;;;;;;5.30;2.47;;;;;;;22.33;74.64;101709.66;5001552;28;20435;-87
2022/09/05 11:34:07;;;;;;;6.70;2.60;;;;;;;22.56;84.13;101712.94;5017135;28;20433;-87
2022/09/05 11:36:46;;;;;;;6.07;2.30;;;;;;;22.44;79.42;101732.28;5016110;28;20424;-86
2022/09/05 11:39:59;;;;;;;5.28;2.45;;;;;;;22.30;74.00;101721.41;5017843;28;20436;-84
2022/09/05 11:42:46;;;;;;;4.78;2.53;;;;;;;22.42;80.52;101726.28;5015942;28;20425;-85
2022/09/05 11:45:35;;;;;;;6.53;2.67;;;;;;;22.27;88.71;101719.31;5011149;28;20444;-86
2022/09/05 11:48:28;;;;;;;4.80;2.40;;;;;;;22.11;87.56;101723.78;5001325;28;20433;-87
2022/09/05 11:51:42;;;;;;;8.73;2.80;;;;;;;22.18;85.70;101701.91;5019427;28;20906;-87
2022/09/05 11:54:48;;;;;;;5.55;2.70;;;;;;;22.28;76.57;101718.16;5019856;28;20450;-83
2022/09/05 11:57:37;;;;;;;5.97;2.80;;;;;;;22.23;81.60;101719.19;5018504;28;20990;-86
2022/09/05 12:00:11;;;;;;;4.53;2.43;;;;;;;22.13;75.50;101715.97;5019607;28;21012;-84
2022/09/05 12:03:10;;;;;;;6.07;2.42;;;;;;;22.13;78.29;101711.22;5006290;28;20436;-84
2022/09/05 12:06:19;;;;;;;5.60;2.40;;;;;;;22.27;85.24;101711.00;5023246;28;20913;-85
2022/09/05 12:08:58;;;;;;;4.27;2.23;;;;;;;22.26;85.47;101712.13;5003828;28;20430;-84
2022/09/05 12:11:44;;;;;;;5.30;2.40;;;;;;;22.48;88.65;101705.50;5021636;28;20435;-86
2022/09/05 12:14:32;;;;;;;6.03;2.53;;;;;;;22.43;84.60;101708.50;5018355;28;20437;-85
2022/09/05 12:17:22;;;;;;;4.82;2.40;;;;;;;22.55;73.31;101703.03;5012401;28;20441;-86
2022/09/05 12:20:01;;;;;;;5.68;2.60;;;;;;;22.60;80.23;101707.56;5004030;28;20413;-87
2022/09/05 12:22:37;;;;;;;6.75;2.60;;;;;;;22.72;77.48;101695.72;5020418;28;20441;-87
2022/09/05 12:25:32;;;;;;;9.60;2.53;;;;;;;22.91;79.80;101690.50;5027796;28;20416;-85
2022/09/05 12:28:06;;;;;;;7.63;3.90;;;;;;;22.76;75.88;101699.44;5020098;28;20427;-86
2022/09/05 12:30:41;;;;;;;6.45;3.50;;;;;;;22.58;73.18;101693.22;5019632;28;20437;-88
2022/09/05 12:33:30;;;;;;;4.90;2.80;;;;;;;22.55;81.97;101694.69;5019945;28;20735;-85
2022/09/05 12:36:11;;;;;;;6.75;2.50;;;;;;;22.46;85.62;101690.38;5024017;28;20946;-83
2022/09/05 12:38:49;;;;;;;4.60;2.53;;;;;;;22.56;77.33;101692.72;5001500;28;20433;-83
2022/09/05 12:41:26;;;;;;;5.57;2.42;;;;;;;22.77;79.17;101689.94;5002724;28;22752;-86